sensor_id;sensor_type;location;lat;lon;timestamp;pressure;altitude;pressure_sealevel;temperature;humidity
78411;BME280;67706;51.074;-1.796;2023-09-19T00:01:20;100430.03;;;13.35;82.21
78411;BME280;67706;51.074;-1.796;2023-09-19T00:03:48;100420.94;;;13.35;82.59
78411;BME280;67706;51.074;-1.796;2023-09-19T00:06:15;100417.25;;;13.41;82.39
78411;BME280;67706;51.074;-1.796;2023-09-19T00:08:42;100420.63;;;13.43;82.29
78411;BME280;67706;51.074;-1.796;2023-09-19T00:11:09;100423.38;;;13.43;82.33
78411;BME280;67706;51.074;-1.796;2023-09-19T00:13:36;100419.09;;;13.47;82.06
78411;BME280;67706;51.074;-1.796;2023-09-19T00:16:08;100431.88;;;13.41;82.60
78411;BME280;67706;51.074;-1.796;2023-09-19T00:18:36;100433.19;;;13.39;83.10
78411;BME280;67706;51.074;-1.796;2023-09-19T00:21:04;100430.41;;;13.39;83.15
78411;BME280;67706;51.074;-1.796;2023-09-19T00:23:32;100426.19;;;13.36;83.24
78411;BME280;67706;51.074;-1.796;2023-09-19T00:25:59;100426.16;;;13.43;83.08
78411;BME280;67706;51.074;-1.796;2023-09-19T00:28:26;100429.31;;;13.46;82.49
78411;BME280;67706;51.074;-1.796;2023-09-19T00:30:52;100434.88;;;13.40;83.21
78411;BME280;67706;51.074;-1.796;2023-09-19T00:33:27;100432.78;;;13.35;83.28
78411;BME280;67706;51.074;-1.796;2023-09-19T00:35:56;100435.72;;;13.40;82.84
78411;BME280;67706;51.074;-1.796;2023-09-19T00:38:25;100435.78;;;13.34;82.94
78411;BME280;67706;51.074;-1.796;2023-09-19T00:40:54;100436.13;;;13.44;81.81
78411;BME280;67706;51.074;-1.796;2023-09-19T00:43:22;100432.28;;;13.45;81.64
78411;BME280;67706;51.074;-1.796;2023-09-19T00:45:51;100438.50;;;13.40;81.82
78411;BME280;67706;51.074;-1.796;2023-09-19T00:48:19;100426.91;;;13.32;82.17
78411;BME280;67706;51.074;-1.796;2023-09-19T00:50:47;100431.22;;;13.46;81.57
78411;BME280;67706;51.074;-1.796;2023-09-19T00:53:17;100419.63;;;13.37;81.57
78411;BME280;67706;51.074;-1.796;2023-09-19T00:55:46;100429.81;;;13.37;81.69
78411;BME280;67706;51.074;-1.796;2023-09-19T00:58:16;100429.03;;;13.30;82.45
78411;BME280;67706;51.074;-1.796;2023-09-19T01:00:43;100427.09;;;13.30;82.46
78411;BME280;67706;51.074;-1.796;2023-09-19T01:03:10;100423.34;;;13.25;82.81
78411;BME280;67706;51.074;-1.796;2023-09-19T01:05:38;100415.63;;;13.15;83.89
78411;BME280;67706;51.074;-1.796;2023-09-19T01:08:05;100416.75;;;13.26;82.88
78411;BME280;67706;51.074;-1.796;2023-09-19T01:10:33;100413.38;;;13.24;83.32
78411;BME280;67706;51.074;-1.796;2023-09-19T01:13:13;100419.03;;;13.11;84.15
78411;BME280;67706;51.074;-1.796;2023-09-19T01:15:49;100413.25;;;13.19;84.48
78411;BME280;67706;51.074;-1.796;2023-09-19T01:18:24;100413.84;;;13.21;84.37
78411;BME280;67706;51.074;-1.796;2023-09-19T01:20:57;100414.28;;;13.18;84.68
78411;BME280;67706;51.074;-1.796;2023-09-19T01:23:40;100406.22;;;13.23;84.68
78411;BME280;67706;51.074;-1.796;2023-09-19T01:26:31;100400.16;;;13.14;85.42
78411;BME280;67706;51.074;-1.796;2023-09-19T01:29:32;100407.25;;;13.22;85.28
78411;BME280;67706;51.074;-1.796;2023-09-19T01:32:04;100406.44;;;13.21;85.44
78411;BME280;67706;51.074;-1.796;2023-09-19T01:34:43;100403.47;;;13.23;85.39
78411;BME280;67706;51.074;-1.796;2023-09-19T01:37:12;100407.94;;;13.42;83.81
78411;BME280;67706;51.074;-1.796;2023-09-19T01:39:39;100402.03;;;13.38;84.18
78411;BME280;67706;51.074;-1.796;2023-09-19T01:42:12;100413.34;;;13.30;84.37
78411;BME280;67706;51.074;-1.796;2023-09-19T01:44:52;100412.94;;;13.27;84.85
78411;BME280;67706;51.074;-1.796;2023-09-19T01:47:28;100406.25;;;13.16;85.04
78411;BME280;67706;51.074;-1.796;2023-09-19T01:50:03;100409.75;;;13.05;85.87
78411;BME280;67706;51.074;-1.796;2023-09-19T01:52:36;100398.25;;;13.15;85.53
78411;BME280;67706;51.074;-1.796;2023-09-19T01:55:09;100404.22;;;13.05;86.16
78411;BME280;67706;51.074;-1.796;2023-09-19T01:57:41;100403.56;;;13.10;86.27
78411;BME280;67706;51.074;-1.796;2023-09-19T02:00:11;100406.38;;;12.97;87.19
78411;BME280;67706;51.074;-1.796;2023-09-19T02:02:44;100401.47;;;13.05;86.92
78411;BME280;67706;51.074;-1.796;2023-09-19T02:05:11;100400.88;;;12.97;87.16
78411;BME280;67706;51.074;-1.796;2023-09-19T02:07:38;100403.19;;;13.00;87.33
78411;BME280;67706;51.074;-1.796;2023-09-19T02:10:06;100400.97;;;12.90;88.25
78411;BME280;67706;51.074;-1.796;2023-09-19T02:12:35;100403.97;;;12.82;89.00
78411;BME280;67706;51.074;-1.796;2023-09-19T02:15:02;100401.16;;;12.89;88.81
78411;BME280;67706;51.074;-1.796;2023-09-19T02:17:29;100403.88;;;12.95;88.83
78411;BME280;67706;51.074;-1.796;2023-09-19T02:19:57;100402.59;;;12.98;88.83
78411;BME280;67706;51.074;-1.796;2023-09-19T02:22:26;100403.47;;;12.92;89.85
78411;BME280;67706;51.074;-1.796;2023-09-19T02:24:53;100400.88;;;12.97;89.52
78411;BME280;67706;51.074;-1.796;2023-09-19T02:27:20;100399.59;;;12.99;89.54
78411;BME280;67706;51.074;-1.796;2023-09-19T02:29:46;100398.25;;;13.15;88.88
78411;BME280;67706;51.074;-1.796;2023-09-19T02:32:14;100394.03;;;13.12;89.49
78411;BME280;67706;51.074;-1.796;2023-09-19T02:34:43;100385.59;;;13.01;90.01
78411;BME280;67706;51.074;-1.796;2023-09-19T02:37:12;100394.13;;;12.93;90.54
78411;BME280;67706;51.074;-1.796;2023-09-19T02:39:41;100385.59;;;13.01;90.08
78411;BME280;67706;51.074;-1.796;2023-09-19T02:42:08;100381.16;;;13.00;90.37
78411;BME280;67706;51.074;-1.796;2023-09-19T02:44:35;100374.81;;;12.99;90.79
78411;BME280;67706;51.074;-1.796;2023-09-19T02:47:03;100373.13;;;13.05;90.55
78411;BME280;67706;51.074;-1.796;2023-09-19T02:49:30;100371.22;;;12.99;91.06
78411;BME280;67706;51.074;-1.796;2023-09-19T02:51:58;100368.63;;;13.04;91.21
78411;BME280;67706;51.074;-1.796;2023-09-19T02:54:26;100370.16;;;13.00;91.50
78411;BME280;67706;51.074;-1.796;2023-09-19T02:56:53;100359.75;;;13.08;91.08
78411;BME280;67706;51.074;-1.796;2023-09-19T02:59:20;100363.50;;;13.14;90.95
78411;BME280;67706;51.074;-1.796;2023-09-19T03:01:47;100364.63;;;13.06;91.75
78411;BME280;67706;51.074;-1.796;2023-09-19T03:04:14;100357.59;;;13.10;91.56
78411;BME280;67706;51.074;-1.796;2023-09-19T03:06:43;100340.16;;;13.16;91.33
78411;BME280;67706;51.074;-1.796;2023-09-19T03:09:10;100358.59;;;13.16;91.60
78411;BME280;67706;51.074;-1.796;2023-09-19T03:11:42;100357.25;;;13.25;91.39
78411;BME280;67706;51.074;-1.796;2023-09-19T03:14:11;100357.00;;;13.26;91.51
78411;BME280;67706;51.074;-1.796;2023-09-19T03:16:40;100353.88;;;13.23;91.97
78411;BME280;67706;51.074;-1.796;2023-09-19T03:19:07;100350.22;;;13.29;92.25
78411;BME280;67706;51.074;-1.796;2023-09-19T03:21:35;100340.03;;;13.29;91.80
78411;BME280;67706;51.074;-1.796;2023-09-19T03:24:03;100345.78;;;13.28;92.30
78411;BME280;67706;51.074;-1.796;2023-09-19T03:26:30;100343.84;;;13.28;92.51
78411;BME280;67706;51.074;-1.796;2023-09-19T03:29:00;100343.03;;;13.28;92.95
78411;BME280;67706;51.074;-1.796;2023-09-19T03:31:31;100335.69;;;13.40;92.62
78411;BME280;67706;51.074;-1.796;2023-09-19T03:33:58;100339.53;;;13.57;92.22
78411;BME280;67706;51.074;-1.796;2023-09-19T03:36:25;100345.25;;;13.55;92.15
78411;BME280;67706;51.074;-1.796;2023-09-19T03:38:53;100343.34;;;13.56;92.48
78411;BME280;67706;51.074;-1.796;2023-09-19T03:41:20;100338.81;;;13.62;92.45
78411;BME280;67706;51.074;-1.796;2023-09-19T03:43:46;100328.13;;;13.72;92.03
78411;BME280;67706;51.074;-1.796;2023-09-19T03:46:15;100324.97;;;13.68;92.61
78411;BME280;67706;51.074;-1.796;2023-09-19T03:48:41;100310.13;;;13.69;92.82
78411;BME280;67706;51.074;-1.796;2023-09-19T03:51:09;100295.16;;;13.77;92.25
78411;BME280;67706;51.074;-1.796;2023-09-19T03:53:36;100297.19;;;13.70;92.91
78411;BME280;67706;51.074;-1.796;2023-09-19T03:56:02;100284.84;;;13.72;92.85
78411;BME280;67706;51.074;-1.796;2023-09-19T03:58:29;100273.81;;;13.72;93.13
78411;BME280;67706;51.074;-1.796;2023-09-19T04:00:56;100268.00;;;13.80;93.37
78411;BME280;67706;51.074;-1.796;2023-09-19T04:03:24;100268.13;;;13.85;93.23
78411;BME280;67706;51.074;-1.796;2023-09-19T04:06:00;100275.25;;;13.93;93.21
78411;BME280;67706;51.074;-1.796;2023-09-19T04:08:27;100267.94;;;13.98;93.16
78411;BME280;67706;51.074;-1.796;2023-09-19T04:10:53;100268.91;;;14.04;93.14
78411;BME280;67706;51.074;-1.796;2023-09-19T04:13:20;100270.63;;;14.05;92.90
78411;BME280;67706;51.074;-1.796;2023-09-19T04:15:47;100267.38;;;14.08;92.81
78411;BME280;67706;51.074;-1.796;2023-09-19T04:18:14;100281.25;;;14.01;93.34
78411;BME280;67706;51.074;-1.796;2023-09-19T04:20:47;100274.34;;;14.10;92.91
78411;BME280;67706;51.074;-1.796;2023-09-19T04:23:14;100274.84;;;14.19;92.72
78411;BME280;67706;51.074;-1.796;2023-09-19T04:25:41;100266.81;;;14.17;93.00
78411;BME280;67706;51.074;-1.796;2023-09-19T04:28:07;100271.25;;;14.18;93.21
78411;BME280;67706;51.074;-1.796;2023-09-19T04:30:35;100266.25;;;14.27;92.92
78411;BME280;67706;51.074;-1.796;2023-09-19T04:33:02;100264.50;;;14.32;93.07
78411;BME280;67706;51.074;-1.796;2023-09-19T04:35:30;100260.06;;;14.31;93.44
78411;BME280;67706;51.074;-1.796;2023-09-19T04:38:01;100259.69;;;14.40;93.61
78411;BME280;67706;51.074;-1.796;2023-09-19T04:40:28;100253.03;;;14.47;93.40
78411;BME280;67706;51.074;-1.796;2023-09-19T04:42:56;100247.97;;;14.44;93.96
78411;BME280;67706;51.074;-1.796;2023-09-19T04:45:23;100243.16;;;14.40;94.46
78411;BME280;67706;51.074;-1.796;2023-09-19T04:47:49;100251.81;;;14.55;94.13
78411;BME280;67706;51.074;-1.796;2023-09-19T04:50:16;100246.75;;;14.52;94.17
78411;BME280;67706;51.074;-1.796;2023-09-19T04:52:44;100250.97;;;14.54;94.37
78411;BME280;67706;51.074;-1.796;2023-09-19T04:55:18;100248.94;;;14.73;93.58
78411;BME280;67706;51.074;-1.796;2023-09-19T04:57:45;100249.44;;;14.70;93.97
78411;BME280;67706;51.074;-1.796;2023-09-19T05:00:13;100260.47;;;14.70;93.99
78411;BME280;67706;51.074;-1.796;2023-09-19T05:02:41;100258.31;;;14.72;94.05
78411;BME280;67706;51.074;-1.796;2023-09-19T05:05:08;100250.66;;;14.74;94.12
78411;BME280;67706;51.074;-1.796;2023-09-19T05:07:36;100254.94;;;14.81;94.05
78411;BME280;67706;51.074;-1.796;2023-09-19T05:10:03;100253.66;;;14.72;94.70
78411;BME280;67706;51.074;-1.796;2023-09-19T05:12:33;100250.28;;;14.82;94.88
78411;BME280;67706;51.074;-1.796;2023-09-19T05:15:01;100242.97;;;14.76;95.80
78411;BME280;67706;51.074;-1.796;2023-09-19T05:17:28;100253.88;;;14.82;95.65
78411;BME280;67706;51.074;-1.796;2023-09-19T05:19:55;100246.06;;;14.79;95.90
78411;BME280;67706;51.074;-1.796;2023-09-19T05:22:22;100244.88;;;14.75;96.45
78411;BME280;67706;51.074;-1.796;2023-09-19T05:24:50;100241.88;;;14.77;96.71
78411;BME280;67706;51.074;-1.796;2023-09-19T05:27:18;100243.44;;;14.73;96.82
78411;BME280;67706;51.074;-1.796;2023-09-19T05:29:47;100251.59;;;14.79;96.74
78411;BME280;67706;51.074;-1.796;2023-09-19T05:32:14;100252.44;;;14.91;95.78
78411;BME280;67706;51.074;-1.796;2023-09-19T05:34:41;100253.19;;;14.87;95.65
78411;BME280;67706;51.074;-1.796;2023-09-19T05:37:08;100253.28;;;14.92;95.49
78411;BME280;67706;51.074;-1.796;2023-09-19T05:39:34;100255.19;;;14.91;95.38
78411;BME280;67706;51.074;-1.796;2023-09-19T05:42:03;100244.03;;;14.86;95.97
78411;BME280;67706;51.074;-1.796;2023-09-19T05:44:29;100254.59;;;14.89;95.94
78411;BME280;67706;51.074;-1.796;2023-09-19T05:46:58;100252.09;;;14.88;95.71
78411;BME280;67706;51.074;-1.796;2023-09-19T05:49:25;100243.31;;;14.91;95.58
78411;BME280;67706;51.074;-1.796;2023-09-19T05:51:52;100240.78;;;14.89;95.92
78411;BME280;67706;51.074;-1.796;2023-09-19T05:54:20;100234.69;;;14.99;95.31
78411;BME280;67706;51.074;-1.796;2023-09-19T05:56:47;100221.09;;;14.86;95.42
78411;BME280;67706;51.074;-1.796;2023-09-19T05:59:17;100239.59;;;14.97;96.21
78411;BME280;67706;51.074;-1.796;2023-09-19T06:01:44;100242.72;;;14.89;97.80
78411;BME280;67706;51.074;-1.796;2023-09-19T06:04:12;100229.53;;;14.91;98.98
78411;BME280;67706;51.074;-1.796;2023-09-19T06:06:39;100233.34;;;14.90;99.93
78411;BME280;67706;51.074;-1.796;2023-09-19T06:09:06;100220.97;;;14.81;100.00
78411;BME280;67706;51.074;-1.796;2023-09-19T06:11:34;100229.50;;;14.79;100.00
78411;BME280;67706;51.074;-1.796;2023-09-19T06:14:00;100218.59;;;14.84;100.00
78411;BME280;67706;51.074;-1.796;2023-09-19T06:16:27;100211.75;;;14.87;100.00
78411;BME280;67706;51.074;-1.796;2023-09-19T06:18:54;100218.09;;;14.87;100.00
78411;BME280;67706;51.074;-1.796;2023-09-19T06:21:22;100194.09;;;14.76;100.00
78411;BME280;67706;51.074;-1.796;2023-09-19T06:23:49;100196.88;;;14.76;100.00
78411;BME280;67706;51.074;-1.796;2023-09-19T06:26:16;100201.63;;;14.81;100.00
78411;BME280;67706;51.074;-1.796;2023-09-19T06:28:42;100202.50;;;14.81;100.00
78411;BME280;67706;51.074;-1.796;2023-09-19T06:31:09;100208.41;;;14.85;100.00
78411;BME280;67706;51.074;-1.796;2023-09-19T06:33:36;100212.44;;;14.94;100.00
78411;BME280;67706;51.074;-1.796;2023-09-19T06:36:04;100203.09;;;14.95;100.00
78411;BME280;67706;51.074;-1.796;2023-09-19T06:38:33;100190.72;;;14.97;100.00
78411;BME280;67706;51.074;-1.796;2023-09-19T06:41:01;100205.84;;;15.06;100.00
78411;BME280;67706;51.074;-1.796;2023-09-19T06:43:30;100197.16;;;15.14;99.76
78411;BME280;67706;51.074;-1.796;2023-09-19T06:45:59;100187.94;;;15.21;99.59
78411;BME280;67706;51.074;-1.796;2023-09-19T06:48:26;100190.81;;;15.14;100.00
78411;BME280;67706;51.074;-1.796;2023-09-19T06:50:54;100197.06;;;15.09;100.00
78411;BME280;67706;51.074;-1.796;2023-09-19T06:53:21;100185.78;;;15.11;100.00
78411;BME280;67706;51.074;-1.796;2023-09-19T06:55:50;100189.47;;;15.17;100.00
78411;BME280;67706;51.074;-1.796;2023-09-19T06:58:17;100182.63;;;15.19;100.00
78411;BME280;67706;51.074;-1.796;2023-09-19T07:00:44;100195.59;;;15.30;99.05
78411;BME280;67706;51.074;-1.796;2023-09-19T07:03:13;100183.78;;;15.35;98.82
78411;BME280;67706;51.074;-1.796;2023-09-19T07:05:41;100188.72;;;15.44;98.44
78411;BME280;67706;51.074;-1.796;2023-09-19T07:08:09;100194.84;;;15.46;98.46
78411;BME280;67706;51.074;-1.796;2023-09-19T07:10:37;100191.00;;;15.47;97.13
78411;BME280;67706;51.074;-1.796;2023-09-19T07:13:07;100187.25;;;15.53;97.08
78411;BME280;67706;51.074;-1.796;2023-09-19T07:15:34;100182.19;;;15.50;97.15
78411;BME280;67706;51.074;-1.796;2023-09-19T07:18:04;100172.69;;;15.58;96.01
78411;BME280;67706;51.074;-1.796;2023-09-19T07:20:32;100183.50;;;15.59;95.52
78411;BME280;67706;51.074;-1.796;2023-09-19T07:22:59;100183.34;;;15.66;94.05
78411;BME280;67706;51.074;-1.796;2023-09-19T07:25:26;100164.06;;;15.71;94.07
78411;BME280;67706;51.074;-1.796;2023-09-19T07:27:54;100168.97;;;15.80;93.85
78411;BME280;67706;51.074;-1.796;2023-09-19T07:30:22;100178.47;;;15.84;94.30
78411;BME280;67706;51.074;-1.796;2023-09-19T07:32:50;100174.63;;;15.85;94.96
78411;BME280;67706;51.074;-1.796;2023-09-19T07:35:18;100182.28;;;15.83;95.72
78411;BME280;67706;51.074;-1.796;2023-09-19T07:37:45;100178.56;;;15.89;95.21
78411;BME280;67706;51.074;-1.796;2023-09-19T07:40:14;100185.06;;;15.83;94.54
78411;BME280;67706;51.074;-1.796;2023-09-19T07:42:41;100183.41;;;15.82;94.12
78411;BME280;67706;51.074;-1.796;2023-09-19T07:45:10;100178.34;;;15.79;94.27
78411;BME280;67706;51.074;-1.796;2023-09-19T07:47:43;100176.44;;;15.80;94.31
78411;BME280;67706;51.074;-1.796;2023-09-19T07:50:10;100173.91;;;15.78;94.66
78411;BME280;67706;51.074;-1.796;2023-09-19T07:52:37;100172.81;;;15.79;94.84
78411;BME280;67706;51.074;-1.796;2023-09-19T07:55:05;100165.47;;;15.85;95.21
78411;BME280;67706;51.074;-1.796;2023-09-19T07:57:34;100176.28;;;15.86;95.24
78411;BME280;67706;51.074;-1.796;2023-09-19T08:00:01;100173.50;;;15.86;95.22
78411;BME280;67706;51.074;-1.796;2023-09-19T08:02:30;100168.38;;;15.78;96.81
78411;BME280;67706;51.074;-1.796;2023-09-19T08:04:58;100174.84;;;15.84;96.79
78411;BME280;67706;51.074;-1.796;2023-09-19T08:07:25;100168.72;;;15.82;97.22
78411;BME280;67706;51.074;-1.796;2023-09-19T08:09:54;100167.81;;;15.76;97.63
78411;BME280;67706;51.074;-1.796;2023-09-19T08:12:20;100167.94;;;15.70;98.80
78411;BME280;67706;51.074;-1.796;2023-09-19T08:14:49;100164.34;;;15.69;99.15
78411;BME280;67706;51.074;-1.796;2023-09-19T08:17:16;100152.13;;;15.82;98.79
78411;BME280;67706;51.074;-1.796;2023-09-19T08:19:45;100153.81;;;15.83;99.32
78411;BME280;67706;51.074;-1.796;2023-09-19T08:22:13;100160.97;;;15.96;99.15
78411;BME280;67706;51.074;-1.796;2023-09-19T08:24:42;100165.50;;;16.02;99.02
78411;BME280;67706;51.074;-1.796;2023-09-19T08:27:09;100164.50;;;16.08;98.18
78411;BME280;67706;51.074;-1.796;2023-09-19T08:29:37;100163.16;;;16.10;97.67
78411;BME280;67706;51.074;-1.796;2023-09-19T08:32:04;100169.78;;;16.09;96.70
78411;BME280;67706;51.074;-1.796;2023-09-19T08:34:31;100153.91;;;16.05;94.43
78411;BME280;67706;51.074;-1.796;2023-09-19T08:36:59;100148.91;;;16.02;95.54
78411;BME280;67706;51.074;-1.796;2023-09-19T08:39:27;100154.44;;;16.02;93.13
78411;BME280;67706;51.074;-1.796;2023-09-19T08:41:59;100165.16;;;15.98;93.54
78411;BME280;67706;51.074;-1.796;2023-09-19T08:44:26;100168.69;;;16.10;93.44
78411;BME280;67706;51.074;-1.796;2023-09-19T08:47:01;100172.91;;;16.13;92.83
78411;BME280;67706;51.074;-1.796;2023-09-19T08:49:37;100176.25;;;16.15;93.04
78411;BME280;67706;51.074;-1.796;2023-09-19T08:52:16;100163.59;;;16.19;93.53
78411;BME280;67706;51.074;-1.796;2023-09-19T08:54:48;100161.84;;;16.29;91.72
78411;BME280;67706;51.074;-1.796;2023-09-19T08:57:18;100158.38;;;16.39;91.73
78411;BME280;67706;51.074;-1.796;2023-09-19T08:59:48;100162.50;;;16.53;92.60
78411;BME280;67706;51.074;-1.796;2023-09-19T09:02:15;100160.69;;;16.58;92.62
78411;BME280;67706;51.074;-1.796;2023-09-19T09:04:45;100156.66;;;16.49;93.02
78411;BME280;67706;51.074;-1.796;2023-09-19T09:07:12;100170.91;;;16.58;92.95
78411;BME280;67706;51.074;-1.796;2023-09-19T09:09:40;100175.41;;;16.47;93.43
78411;BME280;67706;51.074;-1.796;2023-09-19T09:12:11;100170.81;;;16.53;94.05
78411;BME280;67706;51.074;-1.796;2023-09-19T09:14:38;100154.78;;;16.55;93.27
78411;BME280;67706;51.074;-1.796;2023-09-19T09:17:05;100175.28;;;16.54;93.05
78411;BME280;67706;51.074;-1.796;2023-09-19T09:19:33;100161.00;;;16.62;92.15
78411;BME280;67706;51.074;-1.796;2023-09-19T09:22:06;100170.56;;;16.71;93.13
78411;BME280;67706;51.074;-1.796;2023-09-19T09:24:34;100171.38;;;16.72;92.72
78411;BME280;67706;51.074;-1.796;2023-09-19T09:27:04;100172.94;;;16.62;94.09
78411;BME280;67706;51.074;-1.796;2023-09-19T09:29:46;100166.66;;;16.50;93.97
78411;BME280;67706;51.074;-1.796;2023-09-19T09:32:22;100175.09;;;16.44;94.16
78411;BME280;67706;51.074;-1.796;2023-09-19T09:34:51;100173.50;;;16.48;94.95
78411;BME280;67706;51.074;-1.796;2023-09-19T09:37:19;100170.72;;;16.48;94.90
78411;BME280;67706;51.074;-1.796;2023-09-19T09:39:50;100176.09;;;16.38;96.46
78411;BME280;67706;51.074;-1.796;2023-09-19T09:42:32;100176.31;;;16.36;96.86
78411;BME280;67706;51.074;-1.796;2023-09-19T09:45:15;100177.34;;;16.47;96.68
78411;BME280;67706;51.074;-1.796;2023-09-19T09:47:44;100171.22;;;16.45;97.25
78411;BME280;67706;51.074;-1.796;2023-09-19T09:50:25;100171.47;;;16.43;97.94
78411;BME280;67706;51.074;-1.796;2023-09-19T09:52:55;100169.03;;;16.47;98.69
78411;BME280;67706;51.074;-1.796;2023-09-19T09:55:28;100172.38;;;16.49;98.95
78411;BME280;67706;51.074;-1.796;2023-09-19T09:58:16;100175.34;;;16.59;99.22
78411;BME280;67706;51.074;-1.796;2023-09-19T10:00:53;100163.09;;;16.55;99.46
78411;BME280;67706;51.074;-1.796;2023-09-19T10:03:31;100171.50;;;16.60;99.11
78411;BME280;67706;51.074;-1.796;2023-09-19T10:05:59;100163.50;;;16.63;99.63
78411;BME280;67706;51.074;-1.796;2023-09-19T10:08:34;100153.00;;;16.65;100.00
78411;BME280;67706;51.074;-1.796;2023-09-19T10:11:15;100150.41;;;16.59;99.64
78411;BME280;67706;51.074;-1.796;2023-09-19T10:13:42;100151.44;;;16.53;99.28
78411;BME280;67706;51.074;-1.796;2023-09-19T10:16:16;100149.03;;;16.56;99.90
78411;BME280;67706;51.074;-1.796;2023-09-19T10:18:44;100154.28;;;16.58;99.75
78411;BME280;67706;51.074;-1.796;2023-09-19T10:21:15;100149.78;;;16.52;98.55
78411;BME280;67706;51.074;-1.796;2023-09-19T10:23:48;100149.78;;;16.52;98.84
78411;BME280;67706;51.074;-1.796;2023-09-19T10:26:17;100142.09;;;16.59;98.14
78411;BME280;67706;51.074;-1.796;2023-09-19T10:28:46;100140.84;;;16.66;98.56
78411;BME280;67706;51.074;-1.796;2023-09-19T10:31:20;100142.19;;;16.64;98.36
78411;BME280;67706;51.074;-1.796;2023-09-19T10:33:49;100150.59;;;16.69;98.43
78411;BME280;67706;51.074;-1.796;2023-09-19T10:36:17;100147.25;;;16.67;97.97
78411;BME280;67706;51.074;-1.796;2023-09-19T10:38:45;100137.31;;;16.71;98.30
78411;BME280;67706;51.074;-1.796;2023-09-19T10:41:16;100144.03;;;16.75;98.53
78411;BME280;67706;51.074;-1.796;2023-09-19T10:43:43;100151.75;;;16.73;97.70
78411;BME280;67706;51.074;-1.796;2023-09-19T10:46:12;100153.25;;;16.81;97.88
78411;BME280;67706;51.074;-1.796;2023-09-19T10:48:41;100145.19;;;16.79;97.19
78411;BME280;67706;51.074;-1.796;2023-09-19T10:51:10;100158.59;;;16.87;97.36
78411;BME280;67706;51.074;-1.796;2023-09-19T10:53:44;100161.56;;;16.81;98.57
78411;BME280;67706;51.074;-1.796;2023-09-19T10:56:18;100160.66;;;16.75;99.72
78411;BME280;67706;51.074;-1.796;2023-09-19T10:58:45;100157.22;;;16.68;100.00
78411;BME280;67706;51.074;-1.796;2023-09-19T11:01:12;100159.97;;;16.68;100.00
78411;BME280;67706;51.074;-1.796;2023-09-19T11:03:41;100164.84;;;16.61;100.00
78411;BME280;67706;51.074;-1.796;2023-09-19T11:06:12;100164.03;;;16.60;100.00
78411;BME280;67706;51.074;-1.796;2023-09-19T11:08:52;100163.00;;;16.66;100.00
78411;BME280;67706;51.074;-1.796;2023-09-19T11:11:39;100163.41;;;16.75;100.00
78411;BME280;67706;51.074;-1.796;2023-09-19T11:14:29;100160.66;;;16.75;100.00
78411;BME280;67706;51.074;-1.796;2023-09-19T11:20:24;100155.50;;;16.84;100.00
78411;BME280;67706;51.074;-1.796;2023-09-19T11:23:21;100149.72;;;16.85;100.00
78411;BME280;67706;51.074;-1.796;2023-09-19T11:25:53;100156.34;;;16.84;100.00
78411;BME280;67706;51.074;-1.796;2023-09-19T11:28:30;100146.50;;;16.93;100.00
78411;BME280;67706;51.074;-1.796;2023-09-19T11:30:57;100151.22;;;17.14;100.00
78411;BME280;67706;51.074;-1.796;2023-09-19T11:33:25;100144.19;;;17.28;100.00
78411;BME280;67706;51.074;-1.796;2023-09-19T11:36:02;100141.50;;;17.33;100.00
78411;BME280;67706;51.074;-1.796;2023-09-19T11:38:59;100140.25;;;17.24;100.00
78411;BME280;67706;51.074;-1.796;2023-09-19T11:41:37;100145.47;;;17.21;100.00
78411;BME280;67706;51.074;-1.796;2023-09-19T11:44:31;100147.22;;;17.27;100.00
78411;BME280;67706;51.074;-1.796;2023-09-19T11:46:59;100132.31;;;17.33;100.00
78411;BME280;67706;51.074;-1.796;2023-09-19T11:49:30;100123.16;;;17.32;100.00
78411;BME280;67706;51.074;-1.796;2023-09-19T11:52:00;100118.84;;;17.41;100.00
78411;BME280;67706;51.074;-1.796;2023-09-19T11:54:31;100118.91;;;17.46;100.00
78411;BME280;67706;51.074;-1.796;2023-09-19T11:56:59;100117.53;;;17.49;100.00
78411;BME280;67706;51.074;-1.796;2023-09-19T11:59:28;100112.22;;;17.42;100.00
78411;BME280;67706;51.074;-1.796;2023-09-19T12:01:56;100121.88;;;17.40;100.00
78411;BME280;67706;51.074;-1.796;2023-09-19T12:04:34;100119.50;;;17.27;100.00
78411;BME280;67706;51.074;-1.796;2023-09-19T12:07:05;100127.44;;;17.18;100.00
78411;BME280;67706;51.074;-1.796;2023-09-19T12:09:38;100134.66;;;17.19;100.00
78411;BME280;67706;51.074;-1.796;2023-09-19T12:12:05;100127.97;;;17.15;100.00
78411;BME280;67706;51.074;-1.796;2023-09-19T12:14:32;100118.91;;;17.03;100.00
78411;BME280;67706;51.074;-1.796;2023-09-19T12:16:59;100114.03;;;17.10;100.00
78411;BME280;67706;51.074;-1.796;2023-09-19T12:19:49;100113.06;;;17.21;100.00
78411;BME280;67706;51.074;-1.796;2023-09-19T12:22:18;100109.00;;;17.51;100.00
78411;BME280;67706;51.074;-1.796;2023-09-19T12:24:46;100102.78;;;17.65;100.00
78411;BME280;67706;51.074;-1.796;2023-09-19T12:27:13;100113.69;;;17.77;100.00
78411;BME280;67706;51.074;-1.796;2023-09-19T12:29:44;100112.06;;;17.81;100.00
78411;BME280;67706;51.074;-1.796;2023-09-19T12:32:11;100133.38;;;17.75;100.00
78411;BME280;67706;51.074;-1.796;2023-09-19T12:34:40;100126.78;;;17.81;100.00
78411;BME280;67706;51.074;-1.796;2023-09-19T12:37:10;100124.19;;;17.70;100.00
78411;BME280;67706;51.074;-1.796;2023-09-19T12:39:48;100131.09;;;17.67;100.00
78411;BME280;67706;51.074;-1.796;2023-09-19T12:42:17;100137.53;;;17.51;100.00
78411;BME280;67706;51.074;-1.796;2023-09-19T12:44:46;100144.22;;;17.50;100.00
78411;BME280;67706;51.074;-1.796;2023-09-19T12:47:15;100141.22;;;17.35;100.00
78411;BME280;67706;51.074;-1.796;2023-09-19T12:50:11;100137.03;;;17.32;100.00
78411;BME280;67706;51.074;-1.796;2023-09-19T12:52:45;100140.00;;;17.26;100.00
78411;BME280;67706;51.074;-1.796;2023-09-19T12:55:24;100139.09;;;17.42;100.00